sensor_id;sensor_type;location;lat;lon;timestamp;P1;durP1;ratioP1;P2;durP2;ratioP2
65202;SDS011;51788;45.124;38.966;2023-04-25T00:01:45;6.10;;;5.57;;
65202;SDS011;51788;45.124;38.966;2023-04-25T00:04:10;5.57;;;5.07;;
65202;SDS011;51788;45.124;38.966;2023-04-25T00:06:37;5.70;;;4.82;;
65202;SDS011;51788;45.124;38.966;2023-04-25T00:09:03;6.85;;;5.07;;
65202;SDS011;51788;45.124;38.966;2023-04-25T00:11:32;5.38;;;4.97;;
65202;SDS011;51788;45.124;38.966;2023-04-25T00:13:59;5.68;;;4.65;;
65202;SDS011;51788;45.124;38.966;2023-04-25T00:16:27;8.38;;;4.78;;
65202;SDS011;51788;45.124;38.966;2023-04-25T00:18:55;7.57;;;4.90;;
65202;SDS011;51788;45.124;38.966;2023-04-25T00:21:22;4.90;;;4.38;;
65202;SDS011;51788;45.124;38.966;2023-04-25T00:23:49;4.20;;;3.80;;
65202;SDS011;51788;45.124;38.966;2023-04-25T00:26:15;6.80;;;4.32;;
65202;SDS011;51788;45.124;38.966;2023-04-25T00:28:41;4.05;;;3.70;;
65202;SDS011;51788;45.124;38.966;2023-04-25T00:31:07;4.00;;;3.58;;
65202;SDS011;51788;45.124;38.966;2023-04-25T00:33:33;3.65;;;3.33;;
65202;SDS011;51788;45.124;38.966;2023-04-25T00:36:00;3.55;;;3.28;;
65202;SDS011;51788;45.124;38.966;2023-04-25T00:38:26;4.35;;;3.45;;
65202;SDS011;51788;45.124;38.966;2023-04-25T00:40:52;7.57;;;3.80;;
65202;SDS011;51788;45.124;38.966;2023-04-25T00:43:18;5.80;;;4.15;;
65202;SDS011;51788;45.124;38.966;2023-04-25T00:45:44;3.33;;;3.13;;
65202;SDS011;51788;45.124;38.966;2023-04-25T00:48:16;5.27;;;3.57;;
65202;SDS011;51788;45.124;38.966;2023-04-25T00:50:45;3.75;;;3.28;;
65202;SDS011;51788;45.124;38.966;2023-04-25T00:53:22;4.20;;;3.22;;
65202;SDS011;51788;45.124;38.966;2023-04-25T00:55:49;3.85;;;3.53;;
65202;SDS011;51788;45.124;38.966;2023-04-25T00:58:19;3.47;;;3.15;;
65202;SDS011;51788;45.124;38.966;2023-04-25T01:00:47;3.70;;;3.40;;
65202;SDS011;51788;45.124;38.966;2023-04-25T01:03:15;4.32;;;3.92;;
65202;SDS011;51788;45.124;38.966;2023-04-25T01:05:42;5.03;;;3.90;;
65202;SDS011;51788;45.124;38.966;2023-04-25T01:08:09;7.95;;;3.60;;
65202;SDS011;51788;45.124;38.966;2023-04-25T01:10:35;5.30;;;3.97;;
65202;SDS011;51788;45.124;38.966;2023-04-25T01:13:02;4.05;;;3.75;;
65202;SDS011;51788;45.124;38.966;2023-04-25T01:15:28;4.47;;;3.60;;
65202;SDS011;51788;45.124;38.966;2023-04-25T01:17:54;4.78;;;3.70;;
65202;SDS011;51788;45.124;38.966;2023-04-25T01:20:21;3.80;;;3.53;;
65202;SDS011;51788;45.124;38.966;2023-04-25T01:22:48;5.60;;;3.88;;
65202;SDS011;51788;45.124;38.966;2023-04-25T01:25:16;4.35;;;3.63;;
65202;SDS011;51788;45.124;38.966;2023-04-25T01:27:44;4.20;;;3.80;;
65202;SDS011;51788;45.124;38.966;2023-04-25T01:30:10;3.97;;;3.67;;
65202;SDS011;51788;45.124;38.966;2023-04-25T01:32:37;4.97;;;3.88;;
65202;SDS011;51788;45.124;38.966;2023-04-25T01:35:04;6.13;;;3.58;;
65202;SDS011;51788;45.124;38.966;2023-04-25T01:37:38;10.45;;;3.85;;
65202;SDS011;51788;45.124;38.966;2023-04-25T01:40:05;4.47;;;3.75;;
65202;SDS011;51788;45.124;38.966;2023-04-25T01:42:32;7.85;;;3.55;;
65202;SDS011;51788;45.124;38.966;2023-04-25T01:45:00;3.65;;;3.35;;
65202;SDS011;51788;45.124;38.966;2023-04-25T01:47:26;6.05;;;3.60;;
65202;SDS011;51788;45.124;38.966;2023-04-25T01:49:53;3.80;;;3.30;;
65202;SDS011;51788;45.124;38.966;2023-04-25T01:52:20;4.63;;;3.35;;
65202;SDS011;51788;45.124;38.966;2023-04-25T01:54:46;12.20;;;3.60;;
65202;SDS011;51788;45.124;38.966;2023-04-25T01:57:14;8.32;;;3.08;;
65202;SDS011;51788;45.124;38.966;2023-04-25T01:59:42;4.43;;;3.20;;
65202;SDS011;51788;45.124;38.966;2023-04-25T02:02:34;4.20;;;3.35;;
65202;SDS011;51788;45.124;38.966;2023-04-25T02:05:02;7.65;;;3.40;;
65202;SDS011;51788;45.124;38.966;2023-04-25T02:07:29;3.42;;;3.20;;
65202;SDS011;51788;45.124;38.966;2023-04-25T02:09:55;9.93;;;2.97;;
65202;SDS011;51788;45.124;38.966;2023-04-25T02:12:23;5.07;;;3.22;;
65202;SDS011;51788;45.124;38.966;2023-04-25T02:14:54;4.45;;;3.50;;
65202;SDS011;51788;45.124;38.966;2023-04-25T02:17:46;6.90;;;3.17;;
65202;SDS011;51788;45.124;38.966;2023-04-25T02:20:12;4.50;;;2.83;;
65202;SDS011;51788;45.124;38.966;2023-04-25T02:22:38;5.78;;;2.85;;
65202;SDS011;51788;45.124;38.966;2023-04-25T02:25:05;4.22;;;3.55;;
65202;SDS011;51788;45.124;38.966;2023-04-25T02:27:34;5.15;;;2.92;;
65202;SDS011;51788;45.124;38.966;2023-04-25T02:30:01;9.15;;;2.97;;
65202;SDS011;51788;45.124;38.966;2023-04-25T02:32:26;5.28;;;2.97;;
65202;SDS011;51788;45.124;38.966;2023-04-25T02:34:52;2.78;;;2.45;;
65202;SDS011;51788;45.124;38.966;2023-04-25T02:37:19;2.95;;;2.53;;
65202;SDS011;51788;45.124;38.966;2023-04-25T02:39:45;3.20;;;2.80;;
65202;SDS011;51788;45.124;38.966;2023-04-25T02:42:11;2.20;;;2.10;;
65202;SDS011;51788;45.124;38.966;2023-04-25T02:44:37;3.35;;;1.98;;
65202;SDS011;51788;45.124;38.966;2023-04-25T02:47:04;3.22;;;2.58;;
65202;SDS011;51788;45.124;38.966;2023-04-25T02:49:30;2.33;;;2.22;;
65202;SDS011;51788;45.124;38.966;2023-04-25T02:51:56;2.35;;;2.15;;
65202;SDS011;51788;45.124;38.966;2023-04-25T02:54:22;2.40;;;2.20;;
65202;SDS011;51788;45.124;38.966;2023-04-25T02:56:48;2.13;;;2.03;;
65202;SDS011;51788;45.124;38.966;2023-04-25T02:59:20;3.03;;;2.63;;
65202;SDS011;51788;45.124;38.966;2023-04-25T03:01:45;4.72;;;2.40;;
65202;SDS011;51788;45.124;38.966;2023-04-25T03:04:11;2.33;;;2.22;;
65202;SDS011;51788;45.124;38.966;2023-04-25T03:06:38;2.17;;;2.00;;
65202;SDS011;51788;45.124;38.966;2023-04-25T03:09:04;1.90;;;1.75;;
65202;SDS011;51788;45.124;38.966;2023-04-25T03:11:30;2.35;;;2.22;;
65202;SDS011;51788;45.124;38.966;2023-04-25T03:13:56;2.22;;;2.13;;
65202;SDS011;51788;45.124;38.966;2023-04-25T03:16:22;1.95;;;1.83;;
65202;SDS011;51788;45.124;38.966;2023-04-25T03:18:50;2.13;;;2.03;;
65202;SDS011;51788;45.124;38.966;2023-04-25T03:21:17;2.67;;;2.47;;
65202;SDS011;51788;45.124;38.966;2023-04-25T03:23:42;3.85;;;2.45;;
65202;SDS011;51788;45.124;38.966;2023-04-25T03:26:08;2.58;;;2.38;;
65202;SDS011;51788;45.124;38.966;2023-04-25T03:28:35;2.10;;;2.00;;
65202;SDS011;51788;45.124;38.966;2023-04-25T03:31:01;2.80;;;2.25;;
65202;SDS011;51788;45.124;38.966;2023-04-25T03:33:27;1.92;;;1.83;;
65202;SDS011;51788;45.124;38.966;2023-04-25T03:35:53;3.33;;;1.98;;
65202;SDS011;51788;45.124;38.966;2023-04-25T03:38:19;4.57;;;2.55;;
65202;SDS011;51788;45.124;38.966;2023-04-25T03:40:45;2.13;;;1.77;;
65202;SDS011;51788;45.124;38.966;2023-04-25T03:43:43;1.88;;;1.83;;
65202;SDS011;51788;45.124;38.966;2023-04-25T03:46:11;3.08;;;2.25;;
65202;SDS011;51788;45.124;38.966;2023-04-25T03:48:39;2.05;;;1.77;;
65202;SDS011;51788;45.124;38.966;2023-04-25T03:51:06;2.83;;;2.63;;
65202;SDS011;51788;45.124;38.966;2023-04-25T03:53:34;3.67;;;2.58;;
65202;SDS011;51788;45.124;38.966;2023-04-25T03:56:19;2.03;;;1.92;;
65202;SDS011;51788;45.124;38.966;2023-04-25T03:58:49;2.60;;;2.13;;
65202;SDS011;51788;45.124;38.966;2023-04-25T04:01:17;2.13;;;2.03;;
65202;SDS011;51788;45.124;38.966;2023-04-25T04:03:43;4.13;;;2.50;;
65202;SDS011;51788;45.124;38.966;2023-04-25T04:06:09;2.40;;;2.20;;
65202;SDS011;51788;45.124;38.966;2023-04-25T04:08:39;2.80;;;2.35;;
65202;SDS011;51788;45.124;38.966;2023-04-25T04:11:05;2.42;;;2.22;;
65202;SDS011;51788;45.124;38.966;2023-04-25T04:13:32;5.32;;;2.28;;
65202;SDS011;51788;45.124;38.966;2023-04-25T04:15:58;2.65;;;2.03;;
65202;SDS011;51788;45.124;38.966;2023-04-25T04:18:25;4.55;;;2.05;;
65202;SDS011;51788;45.124;38.966;2023-04-25T04:20:52;3.45;;;2.78;;
65202;SDS011;51788;45.124;38.966;2023-04-25T04:23:19;2.85;;;2.53;;
65202;SDS011;51788;45.124;38.966;2023-04-25T04:25:46;3.63;;;2.70;;
65202;SDS011;51788;45.124;38.966;2023-04-25T04:28:31;3.08;;;2.70;;
65202;SDS011;51788;45.124;38.966;2023-04-25T04:31:06;2.67;;;2.50;;
65202;SDS011;51788;45.124;38.966;2023-04-25T04:33:33;4.50;;;2.22;;
65202;SDS011;51788;45.124;38.966;2023-04-25T04:36:02;5.55;;;2.50;;
65202;SDS011;51788;45.124;38.966;2023-04-25T04:38:29;2.67;;;2.58;;
65202;SDS011;51788;45.124;38.966;2023-04-25T04:40:59;2.30;;;2.13;;
65202;SDS011;51788;45.124;38.966;2023-04-25T04:43:48;5.63;;;2.22;;
65202;SDS011;51788;45.124;38.966;2023-04-25T04:46:33;4.38;;;2.40;;
65202;SDS011;51788;45.124;38.966;2023-04-25T04:49:29;2.33;;;2.22;;
65202;SDS011;51788;45.124;38.966;2023-04-25T04:52:06;3.60;;;2.60;;
65202;SDS011;51788;45.124;38.966;2023-04-25T04:54:55;3.60;;;3.30;;
65202;SDS011;51788;45.124;38.966;2023-04-25T04:57:45;3.10;;;2.92;;
65202;SDS011;51788;45.124;38.966;2023-04-25T05:00:11;3.58;;;3.33;;
65202;SDS011;51788;45.124;38.966;2023-04-25T05:02:56;3.40;;;2.97;;
65202;SDS011;51788;45.124;38.966;2023-04-25T05:05:48;3.20;;;2.95;;
65202;SDS011;51788;45.124;38.966;2023-04-25T05:08:34;5.03;;;2.95;;
65202;SDS011;51788;45.124;38.966;2023-04-25T05:11:33;3.30;;;3.05;;
65202;SDS011;51788;45.124;38.966;2023-04-25T05:14:24;2.90;;;2.70;;
65202;SDS011;51788;45.124;38.966;2023-04-25T05:17:25;4.32;;;2.60;;
65202;SDS011;51788;45.124;38.966;2023-04-25T05:19:59;2.70;;;2.50;;
65202;SDS011;51788;45.124;38.966;2023-04-25T05:22:48;4.57;;;3.08;;
65202;SDS011;51788;45.124;38.966;2023-04-25T05:25:32;3.53;;;2.90;;
65202;SDS011;51788;45.124;38.966;2023-04-25T05:28:04;4.10;;;2.85;;
65202;SDS011;51788;45.124;38.966;2023-04-25T05:30:57;4.90;;;2.97;;
65202;SDS011;51788;45.124;38.966;2023-04-25T05:33:46;4.07;;;3.28;;
65202;SDS011;51788;45.124;38.966;2023-04-25T05:36:12;3.70;;;3.30;;
65202;SDS011;51788;45.124;38.966;2023-04-25T05:38:38;15.85;;;3.47;;
65202;SDS011;51788;45.124;38.966;2023-04-25T05:41:13;7.18;;;3.50;;
65202;SDS011;51788;45.124;38.966;2023-04-25T05:44:01;11.07;;;4.00;;
65202;SDS011;51788;45.124;38.966;2023-04-25T05:46:47;3.40;;;3.20;;
65202;SDS011;51788;45.124;38.966;2023-04-25T05:49:32;5.63;;;3.58;;
65202;SDS011;51788;45.124;38.966;2023-04-25T05:52:18;5.15;;;3.20;;
65202;SDS011;51788;45.124;38.966;2023-04-25T05:54:55;7.82;;;5.10;;
65202;SDS011;51788;45.124;38.966;2023-04-25T05:57:22;4.20;;;3.45;;
65202;SDS011;51788;45.124;38.966;2023-04-25T05:59:50;5.68;;;4.00;;
65202;SDS011;51788;45.124;38.966;2023-04-25T06:02:17;7.07;;;4.93;;
65202;SDS011;51788;45.124;38.966;2023-04-25T06:04:43;5.28;;;4.63;;
65202;SDS011;51788;45.124;38.966;2023-04-25T06:07:09;6.40;;;4.47;;
65202;SDS011;51788;45.124;38.966;2023-04-25T06:09:36;15.60;;;7.53;;
65202;SDS011;51788;45.124;38.966;2023-04-25T06:12:04;7.88;;;4.63;;
65202;SDS011;51788;45.124;38.966;2023-04-25T06:14:31;7.50;;;4.40;;
65202;SDS011;51788;45.124;38.966;2023-04-25T06:16:57;5.13;;;4.70;;
65202;SDS011;51788;45.124;38.966;2023-04-25T06:19:23;10.70;;;3.95;;
65202;SDS011;51788;45.124;38.966;2023-04-25T06:21:49;5.95;;;4.53;;
65202;SDS011;51788;45.124;38.966;2023-04-25T06:24:16;3.03;;;2.83;;
65202;SDS011;51788;45.124;38.966;2023-04-25T06:26:42;3.67;;;3.38;;
65202;SDS011;51788;45.124;38.966;2023-04-25T06:29:07;4.97;;;3.35;;
65202;SDS011;51788;45.124;38.966;2023-04-25T06:31:34;2.75;;;2.55;;
65202;SDS011;51788;45.124;38.966;2023-04-25T06:34:01;5.95;;;2.40;;
65202;SDS011;51788;45.124;38.966;2023-04-25T06:36:31;4.82;;;3.00;;
65202;SDS011;51788;45.124;38.966;2023-04-25T06:39:04;9.68;;;6.05;;
65202;SDS011;51788;45.124;38.966;2023-04-25T06:41:31;6.35;;;5.15;;
65202;SDS011;51788;45.124;38.966;2023-04-25T06:44:00;4.30;;;3.47;;
65202;SDS011;51788;45.124;38.966;2023-04-25T06:46:31;3.08;;;2.88;;
65202;SDS011;51788;45.124;38.966;2023-04-25T06:48:58;3.10;;;2.90;;
65202;SDS011;51788;45.124;38.966;2023-04-25T06:51:24;5.57;;;3.63;;
65202;SDS011;51788;45.124;38.966;2023-04-25T06:53:54;3.53;;;2.92;;
65202;SDS011;51788;45.124;38.966;2023-04-25T06:56:38;3.20;;;3.00;;
65202;SDS011;51788;45.124;38.966;2023-04-25T06:59:09;3.85;;;3.45;;
65202;SDS011;51788;45.124;38.966;2023-04-25T07:01:37;10.60;;;3.65;;
65202;SDS011;51788;45.124;38.966;2023-04-25T07:04:09;4.65;;;3.38;;
65202;SDS011;51788;45.124;38.966;2023-04-25T07:06:39;5.55;;;2.90;;
65202;SDS011;51788;45.124;38.966;2023-04-25T07:09:09;3.00;;;2.80;;
65202;SDS011;51788;45.124;38.966;2023-04-25T07:11:39;4.85;;;2.97;;
65202;SDS011;51788;45.124;38.966;2023-04-25T07:14:06;5.40;;;4.35;;
65202;SDS011;51788;45.124;38.966;2023-04-25T07:16:33;8.30;;;3.38;;
65202;SDS011;51788;45.124;38.966;2023-04-25T07:18:59;5.10;;;3.60;;
65202;SDS011;51788;45.124;38.966;2023-04-25T07:21:26;4.15;;;3.08;;
65202;SDS011;51788;45.124;38.966;2023-04-25T07:23:52;3.70;;;3.35;;
65202;SDS011;51788;45.124;38.966;2023-04-25T07:26:24;2.63;;;2.42;;
65202;SDS011;51788;45.124;38.966;2023-04-25T07:29:16;6.25;;;3.15;;
65202;SDS011;51788;45.124;38.966;2023-04-25T07:31:42;3.50;;;3.20;;
65202;SDS011;51788;45.124;38.966;2023-04-25T07:34:08;3.95;;;3.42;;
65202;SDS011;51788;45.124;38.966;2023-04-25T07:36:36;2.92;;;2.67;;
65202;SDS011;51788;45.124;38.966;2023-04-25T07:39:02;5.78;;;5.05;;
65202;SDS011;51788;45.124;38.966;2023-04-25T07:41:29;4.68;;;4.28;;
65202;SDS011;51788;45.124;38.966;2023-04-25T07:43:55;8.10;;;3.90;;
65202;SDS011;51788;45.124;38.966;2023-04-25T07:46:21;5.03;;;3.60;;
65202;SDS011;51788;45.124;38.966;2023-04-25T07:48:47;9.13;;;3.40;;
65202;SDS011;51788;45.124;38.966;2023-04-25T07:51:13;17.77;;;4.10;;
65202;SDS011;51788;45.124;38.966;2023-04-25T07:53:39;4.03;;;3.70;;
65202;SDS011;51788;45.124;38.966;2023-04-25T07:56:11;7.90;;;4.93;;
65202;SDS011;51788;45.124;38.966;2023-04-25T07:58:39;7.07;;;3.75;;
65202;SDS011;51788;45.124;38.966;2023-04-25T08:01:09;6.43;;;3.95;;
65202;SDS011;51788;45.124;38.966;2023-04-25T08:04:01;6.43;;;3.40;;
65202;SDS011;51788;45.124;38.966;2023-04-25T08:07:02;4.28;;;3.20;;
65202;SDS011;51788;45.124;38.966;2023-04-25T08:09:35;6.10;;;2.92;;
65202;SDS011;51788;45.124;38.966;2023-04-25T08:12:05;3.95;;;3.38;;
65202;SDS011;51788;45.124;38.966;2023-04-25T08:14:32;6.70;;;2.67;;
65202;SDS011;51788;45.124;38.966;2023-04-25T08:17:05;2.95;;;2.72;;
65202;SDS011;51788;45.124;38.966;2023-04-25T08:19:33;6.57;;;2.88;;
65202;SDS011;51788;45.124;38.966;2023-04-25T08:22:00;6.45;;;3.92;;
65202;SDS011;51788;45.124;38.966;2023-04-25T08:24:35;11.88;;;4.00;;
65202;SDS011;51788;45.124;38.966;2023-04-25T08:27:01;6.20;;;3.78;;
65202;SDS011;51788;45.124;38.966;2023-04-25T08:29:29;10.10;;;3.25;;
65202;SDS011;51788;45.124;38.966;2023-04-25T08:31:56;6.30;;;3.10;;
65202;SDS011;51788;45.124;38.966;2023-04-25T08:34:22;7.20;;;3.35;;
65202;SDS011;51788;45.124;38.966;2023-04-25T08:36:49;10.25;;;3.60;;
65202;SDS011;51788;45.124;38.966;2023-04-25T08:39:36;3.80;;;3.03;;
65202;SDS011;51788;45.124;38.966;2023-04-25T08:42:21;4.20;;;2.60;;
65202;SDS011;51788;45.124;38.966;2023-04-25T08:44:49;8.02;;;3.50;;
65202;SDS011;51788;45.124;38.966;2023-04-25T08:47:15;5.97;;;2.70;;
65202;SDS011;51788;45.124;38.966;2023-04-25T08:49:48;4.93;;;2.65;;
65202;SDS011;51788;45.124;38.966;2023-04-25T08:52:19;4.35;;;2.92;;
65202;SDS011;51788;45.124;38.966;2023-04-25T08:54:48;5.85;;;2.70;;
65202;SDS011;51788;45.124;38.966;2023-04-25T08:57:16;8.30;;;2.97;;
65202;SDS011;51788;45.124;38.966;2023-04-25T08:59:45;9.15;;;3.28;;
65202;SDS011;51788;45.124;38.966;2023-04-25T09:02:12;5.72;;;2.92;;
65202;SDS011;51788;45.124;38.966;2023-04-25T09:04:45;6.78;;;2.95;;
65202;SDS011;51788;45.124;38.966;2023-04-25T09:07:12;2.72;;;2.40;;
65202;SDS011;51788;45.124;38.966;2023-04-25T09:09:43;7.80;;;2.50;;
65202;SDS011;51788;45.124;38.966;2023-04-25T09:12:09;5.07;;;2.78;;
65202;SDS011;51788;45.124;38.966;2023-04-25T09:14:35;6.32;;;2.35;;
65202;SDS011;51788;45.124;38.966;2023-04-25T09:17:22;4.75;;;2.28;;
65202;SDS011;51788;45.124;38.966;2023-04-25T09:19:51;5.50;;;2.60;;
65202;SDS011;51788;45.124;38.966;2023-04-25T09:22:30;9.15;;;3.00;;
65202;SDS011;51788;45.124;38.966;2023-04-25T09:24:57;5.35;;;2.67;;
65202;SDS011;51788;45.124;38.966;2023-04-25T09:27:26;2.90;;;2.63;;
65202;SDS011;51788;45.124;38.966;2023-04-25T09:30:01;10.60;;;2.70;;
65202;SDS011;51788;45.124;38.966;2023-04-25T09:32:41;8.38;;;3.00;;
65202;SDS011;51788;45.124;38.966;2023-04-25T09:35:09;9.32;;;3.15;;
65202;SDS011;51788;45.124;38.966;2023-04-25T09:37:36;4.00;;;2.20;;
65202;SDS011;51788;45.124;38.966;2023-04-25T09:40:05;5.78;;;2.70;;
65202;SDS011;51788;45.124;38.966;2023-04-25T09:42:41;7.65;;;2.65;;
65202;SDS011;51788;45.124;38.966;2023-04-25T09:45:07;4.53;;;2.75;;
65202;SDS011;51788;45.124;38.966;2023-04-25T09:50:16;2.80;;;2.28;;
65202;SDS011;51788;45.124;38.966;2023-04-25T09:53:01;8.17;;;2.80;;
65202;SDS011;51788;45.124;38.966;2023-04-25T09:55:47;6.57;;;2.97;;
65202;SDS011;51788;45.124;38.966;2023-04-25T09:58:13;2.63;;;2.42;;
65202;SDS011;51788;45.124;38.966;2023-04-25T10:00:40;4.95;;;2.45;;
65202;SDS011;51788;45.124;38.966;2023-04-25T10:03:20;7.15;;;2.60;;
65202;SDS011;51788;45.124;38.966;2023-04-25T10:08:33;3.75;;;2.35;;
65202;SDS011;51788;45.124;38.966;2023-04-25T10:11:00;4.90;;;2.88;;
65202;SDS011;51788;45.124;38.966;2023-04-25T10:13:29;5.38;;;2.90;;
65202;SDS011;51788;45.124;38.966;2023-04-25T10:15:59;2.45;;;2.28;;
65202;SDS011;51788;45.124;38.966;2023-04-25T10:18:29;6.68;;;2.20;;
65202;SDS011;51788;45.124;38.966;2023-04-25T10:21:00;13.35;;;2.92;;
65202;SDS011;51788;45.124;38.966;2023-04-25T10:23:29;12.93;;;3.00;;
65202;SDS011;51788;45.124;38.966;2023-04-25T10:25:56;7.93;;;4.45;;
65202;SDS011;51788;45.124;38.966;2023-04-25T10:28:23;8.15;;;2.95;;
65202;SDS011;51788;45.124;38.966;2023-04-25T10:31:03;4.85;;;3.35;;
65202;SDS011;51788;45.124;38.966;2023-04-25T10:33:40;2.58;;;2.35;;
65202;SDS011;51788;45.124;38.966;2023-04-25T10:36:08;5.55;;;3.00;;
65202;SDS011;51788;45.124;38.966;2023-04-25T10:38:36;9.00;;;2.95;;
65202;SDS011;51788;45.124;38.966;2023-04-25T10:41:06;2.50;;;2.30;;
65202;SDS011;51788;45.124;38.966;2023-04-25T10:43:35;10.25;;;3.13;;
65202;SDS011;51788;45.124;38.966;2023-04-25T10:46:12;2.70;;;2.45;;
65202;SDS011;51788;45.124;38.966;2023-04-25T10:48:43;4.95;;;2.95;;
65202;SDS011;51788;45.124;38.966;2023-04-25T10:51:18;3.90;;;2.20;;
65202;SDS011;51788;45.124;38.966;2023-04-25T10:56:30;2.90;;;2.70;;
65202;SDS011;51788;45.124;38.966;2023-04-25T10:59:04;3.20;;;2.17;;
65202;SDS011;51788;45.124;38.966;2023-04-25T11:01:43;10.20;;;2.65;;
65202;SDS011;51788;45.124;38.966;2023-04-25T11:04:24;5.53;;;2.60;;
65202;SDS011;51788;45.124;38.966;2023-04-25T11:09:28;2.03;;;1.88;;
65202;SDS011;51788;45.124;38.966;2023-04-25T11:11:54;5.57;;;2.47;;
65202;SDS011;51788;45.124;38.966;2023-04-25T11:14:21;2.55;;;2.35;;
65202;SDS011;51788;45.124;38.966;2023-04-25T11:16:52;4.55;;;2.33;;
65202;SDS011;51788;45.124;38.966;2023-04-25T11:21:45;9.05;;;2.60;;
65202;SDS011;51788;45.124;38.966;2023-04-25T11:24:11;2.35;;;2.05;;
65202;SDS011;51788;45.124;38.966;2023-04-25T11:26:37;5.30;;;2.50;;
65202;SDS011;51788;45.124;38.966;2023-04-25T11:29:03;4.88;;;2.30;;
65202;SDS011;51788;45.124;38.966;2023-04-25T11:31:29;5.53;;;2.88;;
65202;SDS011;51788;45.124;38.966;2023-04-25T11:33:58;4.60;;;2.10;;
65202;SDS011;51788;45.124;38.966;2023-04-25T11:36:25;9.63;;;2.92;;
65202;SDS011;51788;45.124;38.966;2023-04-25T11:38:52;10.20;;;3.28;;
65202;SDS011;51788;45.124;38.966;2023-04-25T11:41:19;3.08;;;2.17;;
65202;SDS011;51788;45.124;38.966;2023-04-25T11:43:47;11.02;;;2.00;;
65202;SDS011;51788;45.124;38.966;2023-04-25T11:46:15;4.50;;;3.10;;
65202;SDS011;51788;45.124;38.966;2023-04-25T11:48:41;8.80;;;2.65;;
65202;SDS011;51788;45.124;38.966;2023-04-25T11:51:08;4.22;;;2.40;;
65202;SDS011;51788;45.124;38.966;2023-04-25T11:53:34;7.85;;;2.72;;
65202;SDS011;51788;45.124;38.966;2023-04-25T11:56:01;4.45;;;2.17;;
65202;SDS011;51788;45.124;38.966;2023-04-25T11:58:53;6.82;;;2.92;;
65202;SDS011;51788;45.124;38.966;2023-04-25T12:01:33;3.65;;;2.50;;
65202;SDS011;51788;45.124;38.966;2023-04-25T12:04:16;2.80;;;2.25;;
65202;SDS011;51788;45.124;38.966;2023-04-25T12:09:09;5.47;;;3.10;;
65202;SDS011;51788;45.124;38.966;2023-04-25T12:11:43;3.50;;;2.78;;
65202;SDS011;51788;45.124;38.966;2023-04-25T12:14:11;11.07;;;2.70;;
65202;SDS011;51788;45.124;38.966;2023-04-25T12:16:46;3.20;;;1.95;;
65202;SDS011;51788;45.124;38.966;2023-04-25T12:19:15;12.85;;;3.15;;
65202;SDS011;51788;45.124;38.966;2023-04-25T12:21:42;8.00;;;3.70;;
65202;SDS011;51788;45.124;38.966;2023-04-25T12:24:12;5.22;;;2.13;;
65202;SDS011;51788;45.124;38.966;2023-04-25T12:27:01;6.23;;;2.77;;
65202;SDS011;51788;45.124;38.966;2023-04-25T12:29:28;45.95;;;4.15;;
65202;SDS011;51788;45.124;38.966;2023-04-25T12:31:56;5.60;;;2.30;;
65202;SDS011;51788;45.124;38.966;2023-04-25T12:34:22;3.30;;;2.30;;
65202;SDS011;51788;45.124;38.966;2023-04-25T12:36:49;7.47;;;2.95;;
65202;SDS011;51788;45.124;38.966;2023-04-25T12:39:17;4.35;;;2.35;;
65202;SDS011;51788;45.124;38.966;2023-04-25T12:41:45;8.05;;;2.33;;
65202;SDS011;51788;45.124;38.966;2023-04-25T12:44:12;6.72;;;2.30;;
65202;SDS011;51788;45.124;38.966;2023-04-25T12:46:38;8.88;;;2.60;;
65202;SDS011;51788;45.124;38.966;2023-04-25T12:49:06;6.35;;;2.85;;
65202;SDS011;51788;45.124;38.966;2023-04-25T12:51:36;2.55;;;2.35;;
65202;SDS011;51788;45.124;38.966;2023-04-25T12:54:03;3.67;;;2.15;;
65202;SDS011;51788;45.124;38.966;2023-04-25T12:56:31;5.72;;;2.50;;
65202;SDS011;51788;45.124;38.966;2023-04-25T12:58:57;4.22;;;2.58;;
65202;SDS011;51788;45.124;38.966;2023-04-25T13:01:24;5.25;;;2.50;;
65202;SDS011;51788;45.124;38.966;2023-04-25T13:03:50;8.40;;;3.33;;
65202;SDS011;51788;45.124;38.966;2023-04-25T13:06:17;6.18;;;2.90;;
65202;SDS011;51788;45.124;38.966;2023-04-25T13:08:44;4.60;;;2.88;;
65202;SDS011;51788;45.124;38.966;2023-04-25T13:11:10;5.82;;;2.72;;
65202;SDS011;51788;45.124;38.966;2023-04-25T13:13:37;5.72;;;3.75;;
65202;SDS011;51788;45.124;38.966;2023-04-25T13:16:03;2.92;;;2.40;;
65202;SDS011;51788;45.124;38.966;2023-04-25T13:18:30;3.63;;;2.40;;
65202;SDS011;51788;45.124;38.966;2023-04-25T13:20:57;11.13;;;2.40;;
65202;SDS011;51788;45.124;38.966;2023-04-25T13:23:25;9.48;;;2.78;;
65202;SDS011;51788;45.124;38.966;2023-04-25T13:25:53;5.82;;;2.60;;
65202;SDS011;51788;45.124;38.966;2023-04-25T13:28:20;2.65;;;2.45;;
65202;SDS011;51788;45.124;38.966;2023-04-25T13:30:47;4.13;;;2.83;;
65202;SDS011;51788;45.124;38.966;2023-04-25T13:33:13;3.85;;;2.55;;
65202;SDS011;51788;45.124;38.966;2023-04-25T13:35:40;5.03;;;2.83;;
65202;SDS011;51788;45.124;38.966;2023-04-25T13:38:06;6.85;;;3.00;;
65202;SDS011;51788;45.124;38.966;2023-04-25T13:40:32;6.75;;;2.42;;
65202;SDS011;51788;45.124;38.966;2023-04-25T13:42:59;5.05;;;2.63;;
65202;SDS011;51788;45.124;38.966;2023-04-25T13:45:24;9.98;;;3.00;;
65202;SDS011;51788;45.124;38.966;2023-04-25T13:47:50;15.48;;;3.17;;
65202;SDS011;51788;45.124;38.966;2023-04-25T13:50:16;7.70;;;2.33;;
65202;SDS011;51788;45.124;38.966;2023-04-25T13:52:42;2.53;;;2.20;;
65202;SDS011;51788;45.124;38.966;2023-04-25T13:55:09;9.10;;;2.55;;
65202;SDS011;51788;45.124;38.966;2023-04-25T13:57:35;8.77;;;2.92;;
65202;SDS011;51788;45.124;38.966;2023-04-25T14:00:02;8.32;;;3.35;;
65202;SDS011;51788;45.124;38.966;2023-04-25T14:02:34;12.68;;;3.10;;
65202;SDS011;51788;45.124;38.966;2023-04-25T14:05:01;5.20;;;3.00;;
65202;SDS011;51788;45.124;38.966;2023-04-25T14:07:27;4.18;;;3.25;;
65202;SDS011;51788;45.124;38.966;2023-04-25T14:09:53;4.75;;;2.80;;
65202;SDS011;51788;45.124;38.966;2023-04-25T14:12:19;13.27;;;3.67;;
65202;SDS011;51788;45.124;38.966;2023-04-25T14:14:45;5.18;;;2.45;;
65202;SDS011;51788;45.124;38.966;2023-04-25T14:17:11;4.40;;;2.53;;
65202;SDS011;51788;45.124;38.966;2023-04-25T14:19:37;5.53;;;2.80;;
65202;SDS011;51788;45.124;38.966;2023-04-25T14:22:08;4.07;;;2.25;;
65202;SDS011;51788;45.124;38.966;2023-04-25T14:24:35;5.68;;;2.40;;
65202;SDS011;51788;45.124;38.966;2023-04-25T14:27:01;8.25;;;3.50;;
65202;SDS011;51788;45.124;38.966;2023-04-25T14:29:27;4.32;;;2.70;;
65202;SDS011;51788;45.124;38.966;2023-04-25T14:31:53;4.68;;;3.15;;
65202;SDS011;51788;45.124;38.966;2023-04-25T14:34:19;3.70;;;2.65;;
65202;SDS011;51788;45.124;38.966;2023-04-25T14:36:45;11.57;;;3.25;;
65202;SDS011;51788;45.124;38.966;2023-04-25T14:39:12;7.18;;;2.90;;
65202;SDS011;51788;45.124;38.966;2023-04-25T14:41:39;4.13;;;2.42;;
65202;SDS011;51788;45.124;38.966;2023-04-25T14:44:05;12.00;;;4.70;;
65202;SDS011;51788;45.124;38.966;2023-04-25T14:46:31;5.13;;;4.00;;
65202;SDS011;51788;45.124;38.966;2023-04-25T14:48:57;4.60;;;3.42;;
65202;SDS011;51788;45.124;38.966;2023-04-25T14:51:23;6.13;;;3.35;;
65202;SDS011;51788;45.124;38.966;2023-04-25T14:53:49;4.50;;;3.28;;
65202;SDS011;51788;45.124;38.966;2023-04-25T14:56:16;6.35;;;3.15;;
65202;SDS011;51788;45.124;38.966;2023-04-25T14:58:41;7.97;;;3.53;;
65202;SDS011;51788;45.124;38.966;2023-04-25T15:01:07;8.52;;;3.45;;
65202;SDS011;51788;45.124;38.966;2023-04-25T15:03:34;8.90;;;2.95;;
65202;SDS011;51788;45.124;38.966;2023-04-25T15:06:00;4.30;;;2.95;;